Terminal Aerodrome Forecast
Issued by NWS

Home | Current Version | Previous Version | Text Only | Print | Product List | Glossary On
Versions: 1 2 3 4 5 6 7 8 9 10 11 12 13 14 15 16 17 18 19 20 21 22 23 24 25
000
FTAK31 PAFA 032340
TAFAOR
TAF
PAOR 032340Z 0400/0424 31008G15KT 6SM FU VCTS SCT060CB BKN200
     FM040600 00000KT P6SM FEW070 SCT200
     FM042000 12005KT P6SM VCTS SCT070CB SCT200=

USA.gov is the U.S. government's official web portal to all federal, state and local government web resources and services.